Lake Havasu City, AZ (86403)

10:51 PM MST on December 04, 2016 (GMT -0700)
Tombomambo weather | | Change Station

Elev 705 ft 34.48 °N, 114.33 °W | Updated 21 seconds ago

Clear
Clear
52.7 °F
Feels Like 52.7 °F
N
0.0
Wind Variable Wind from NE
Gusts 0.0 mph

Today
High -- | Low -- °F
--% Chance of Precip.
Yesterday
High -- | Low -- °F
Precip. -- in
Pressure 29.92 in
Visibility 10.0 miles
Clouds Clear
Dew Point 13 °F
Humidity 20%
Rainfall 0.00 in
Snow Depth Not available.
7:28 AM 5:26 PM
Waxing Crescent, 28% visible
METAR KEED 050456Z AUTO 26005KT 10SM CLR 12/M10 A2996 RMK AO2 SLP132 T01171100
Pressure 29.92 in
Visibility 10.0 miles
Clouds Clear
Dew Point 13 °F
Humidity 20%
Rainfall 0.00 in
Snow Depth Not available.
7:28 AM 5:26 PM
Waxing Crescent, 28% visible
METAR KEED 050456Z AUTO 26005KT 10SM CLR 12/M10 A2996 RMK AO2 SLP132 T01171100

10-Day Weather Forecast

Almanac

Astronomy

Dec. 04, 2016 Rise Set
Actual Time
Civil Twilight
Nautical Twilight
Astronomical Twilight
Moon
Length of Visible Light
Length of Day
Tomorrow will be .
, % of the Moon is Illuminated

Today's Extremes

State Highs State Lows

Community

WunderPhotos

Upload Photos

1,955,770 photos uploaded!

WunderBlog® & News

Nearby

Air Quality

  Air Quality AQ Index Pollutant
Not available.

Snow Depth

Station Depth Elevation

Earthquake Activity

City Distance Mag. Time & Date
Minimum magnitude displayed is 2.5.

Coastal Water Temperatures

Place Temperature

Stations

Nearby Weather Stations

Station Location Temp. Windchill Dew Point Humidity Wind Precip. Elev Updated Type
                   

Watches & Warnings

There are currently no watches in effect.